sensor_id;sensor_type;location;lat;lon;timestamp;P1;durP1;ratioP1;P2;durP2;ratioP2
21721;SDS011;11023;48.274;7.794;2022-11-20T00:00:26;9.13;;;6.95;;
21721;SDS011;11023;48.274;7.794;2022-11-20T00:02:52;11.25;;;7.13;;
21721;SDS011;11023;48.274;7.794;2022-11-20T00:05:18;9.63;;;6.78;;
21721;SDS011;11023;48.274;7.794;2022-11-20T00:07:44;11.73;;;7.43;;
21721;SDS011;11023;48.274;7.794;2022-11-20T00:10:10;11.25;;;7.18;;
21721;SDS011;11023;48.274;7.794;2022-11-20T00:12:35;13.52;;;7.45;;
21721;SDS011;11023;48.274;7.794;2022-11-20T00:15:01;12.70;;;6.88;;
21721;SDS011;11023;48.274;7.794;2022-11-20T00:17:28;13.30;;;7.30;;
21721;SDS011;11023;48.274;7.794;2022-11-20T00:19:54;13.60;;;7.22;;
21721;SDS011;11023;48.274;7.794;2022-11-20T00:22:20;10.35;;;6.60;;
21721;SDS011;11023;48.274;7.794;2022-11-20T00:24:45;9.93;;;6.82;;
21721;SDS011;11023;48.274;7.794;2022-11-20T00:27:11;10.65;;;6.53;;
21721;SDS011;11023;48.274;7.794;2022-11-20T00:29:37;10.20;;;6.45;;
21721;SDS011;11023;48.274;7.794;2022-11-20T00:32:02;8.02;;;5.95;;
21721;SDS011;11023;48.274;7.794;2022-11-20T00:34:28;10.73;;;6.90;;
21721;SDS011;11023;48.274;7.794;2022-11-20T00:36:54;9.23;;;6.18;;
21721;SDS011;11023;48.274;7.794;2022-11-20T00:39:19;9.05;;;6.68;;
21721;SDS011;11023;48.274;7.794;2022-11-20T00:41:45;8.55;;;6.35;;
21721;SDS011;11023;48.274;7.794;2022-11-20T00:44:11;8.48;;;6.72;;
21721;SDS011;11023;48.274;7.794;2022-11-20T00:46:37;11.43;;;6.38;;
21721;SDS011;11023;48.274;7.794;2022-11-20T00:49:02;10.68;;;6.47;;
21721;SDS011;11023;48.274;7.794;2022-11-20T00:51:28;8.35;;;6.18;;
21721;SDS011;11023;48.274;7.794;2022-11-20T00:53:57;9.85;;;6.60;;
21721;SDS011;11023;48.274;7.794;2022-11-20T00:56:25;12.27;;;7.28;;
21721;SDS011;11023;48.274;7.794;2022-11-20T00:58:50;10.27;;;7.05;;
21721;SDS011;11023;48.274;7.794;2022-11-20T01:01:17;10.85;;;6.75;;
21721;SDS011;11023;48.274;7.794;2022-11-20T01:03:52;8.70;;;6.80;;
21721;SDS011;11023;48.274;7.794;2022-11-20T01:06:20;10.50;;;7.22;;
21721;SDS011;11023;48.274;7.794;2022-11-20T01:08:48;8.18;;;6.72;;
21721;SDS011;11023;48.274;7.794;2022-11-20T01:11:18;9.55;;;6.32;;
21721;SDS011;11023;48.274;7.794;2022-11-20T01:14:04;12.15;;;7.25;;
21721;SDS011;11023;48.274;7.794;2022-11-20T01:16:32;9.60;;;6.63;;
21721;SDS011;11023;48.274;7.794;2022-11-20T01:19:01;8.90;;;6.38;;
21721;SDS011;11023;48.274;7.794;2022-11-20T01:21:30;9.55;;;6.47;;
21721;SDS011;11023;48.274;7.794;2022-11-20T01:24:00;9.80;;;6.93;;
21721;SDS011;11023;48.274;7.794;2022-11-20T01:26:28;8.98;;;6.22;;
21721;SDS011;11023;48.274;7.794;2022-11-20T01:28:55;9.50;;;7.18;;
21721;SDS011;11023;48.274;7.794;2022-11-20T01:31:26;8.10;;;6.53;;
21721;SDS011;11023;48.274;7.794;2022-11-20T01:33:58;9.57;;;7.00;;
21721;SDS011;11023;48.274;7.794;2022-11-20T01:36:26;8.27;;;6.93;;
21721;SDS011;11023;48.274;7.794;2022-11-20T01:38:54;8.13;;;5.75;;
21721;SDS011;11023;48.274;7.794;2022-11-20T01:41:21;13.90;;;6.93;;
21721;SDS011;11023;48.274;7.794;2022-11-20T01:44:09;8.98;;;6.70;;
21721;SDS011;11023;48.274;7.794;2022-11-20T01:46:38;9.38;;;6.80;;
21721;SDS011;11023;48.274;7.794;2022-11-20T01:51:46;8.25;;;6.35;;
21721;SDS011;11023;48.274;7.794;2022-11-20T01:54:19;7.22;;;5.70;;
21721;SDS011;11023;48.274;7.794;2022-11-20T01:57:15;8.80;;;5.88;;
21721;SDS011;11023;48.274;7.794;2022-11-20T01:59:43;7.47;;;5.25;;
21721;SDS011;11023;48.274;7.794;2022-11-20T02:02:13;6.82;;;5.00;;
21721;SDS011;11023;48.274;7.794;2022-11-20T02:04:39;7.47;;;4.95;;
21721;SDS011;11023;48.274;7.794;2022-11-20T02:07:05;7.22;;;5.47;;
21721;SDS011;11023;48.274;7.794;2022-11-20T02:09:32;6.28;;;4.88;;
21721;SDS011;11023;48.274;7.794;2022-11-20T02:11:57;5.75;;;4.78;;
21721;SDS011;11023;48.274;7.794;2022-11-20T02:14:24;11.35;;;5.70;;
21721;SDS011;11023;48.274;7.794;2022-11-20T02:16:51;10.70;;;7.22;;
21721;SDS011;11023;48.274;7.794;2022-11-20T02:19:28;9.95;;;6.63;;
21721;SDS011;11023;48.274;7.794;2022-11-20T02:24:26;9.25;;;6.18;;
21721;SDS011;11023;48.274;7.794;2022-11-20T02:27:02;7.97;;;6.38;;
21721;SDS011;11023;48.274;7.794;2022-11-20T02:32:26;10.15;;;6.47;;
21721;SDS011;11023;48.274;7.794;2022-11-20T02:34:53;7.75;;;6.72;;
21721;SDS011;11023;48.274;7.794;2022-11-20T02:37:19;7.25;;;5.75;;
21721;SDS011;11023;48.274;7.794;2022-11-20T02:39:46;8.23;;;5.80;;
21721;SDS011;11023;48.274;7.794;2022-11-20T02:42:13;6.78;;;5.20;;
21721;SDS011;11023;48.274;7.794;2022-11-20T02:44:39;7.15;;;5.63;;
21721;SDS011;11023;48.274;7.794;2022-11-20T02:47:05;8.73;;;5.78;;
21721;SDS011;11023;48.274;7.794;2022-11-20T02:49:31;7.50;;;6.00;;
21721;SDS011;11023;48.274;7.794;2022-11-20T02:51:58;8.82;;;5.75;;
21721;SDS011;11023;48.274;7.794;2022-11-20T02:54:23;8.55;;;5.55;;
21721;SDS011;11023;48.274;7.794;2022-11-20T02:56:49;7.80;;;5.95;;
21721;SDS011;11023;48.274;7.794;2022-11-20T02:59:15;8.98;;;5.70;;
21721;SDS011;11023;48.274;7.794;2022-11-20T03:01:41;6.05;;;5.10;;
21721;SDS011;11023;48.274;7.794;2022-11-20T03:04:06;6.60;;;5.53;;
21721;SDS011;11023;48.274;7.794;2022-11-20T03:06:33;6.90;;;5.00;;
21721;SDS011;11023;48.274;7.794;2022-11-20T03:08:59;7.03;;;5.22;;
21721;SDS011;11023;48.274;7.794;2022-11-20T03:11:24;9.15;;;5.65;;
21721;SDS011;11023;48.274;7.794;2022-11-20T03:13:50;8.00;;;5.53;;
21721;SDS011;11023;48.274;7.794;2022-11-20T03:16:17;7.53;;;5.25;;
21721;SDS011;11023;48.274;7.794;2022-11-20T03:18:45;8.00;;;5.55;;
21721;SDS011;11023;48.274;7.794;2022-11-20T03:21:11;9.75;;;5.70;;
21721;SDS011;11023;48.274;7.794;2022-11-20T03:23:38;6.47;;;5.28;;
21721;SDS011;11023;48.274;7.794;2022-11-20T03:28:37;7.20;;;5.55;;
21721;SDS011;11023;48.274;7.794;2022-11-20T03:31:07;7.15;;;5.55;;
21721;SDS011;11023;48.274;7.794;2022-11-20T03:33:34;9.55;;;5.93;;
21721;SDS011;11023;48.274;7.794;2022-11-20T03:36:01;7.80;;;5.72;;
21721;SDS011;11023;48.274;7.794;2022-11-20T03:38:31;8.88;;;6.30;;
21721;SDS011;11023;48.274;7.794;2022-11-20T03:41:01;6.53;;;5.20;;
21721;SDS011;11023;48.274;7.794;2022-11-20T03:43:29;7.43;;;5.10;;
21721;SDS011;11023;48.274;7.794;2022-11-20T03:45:55;10.20;;;5.65;;
21721;SDS011;11023;48.274;7.794;2022-11-20T03:48:21;9.40;;;5.72;;
21721;SDS011;11023;48.274;7.794;2022-11-20T03:50:46;7.00;;;5.18;;
21721;SDS011;11023;48.274;7.794;2022-11-20T03:53:13;11.30;;;5.88;;
21721;SDS011;11023;48.274;7.794;2022-11-20T03:55:39;9.20;;;6.05;;
21721;SDS011;11023;48.274;7.794;2022-11-20T03:58:05;8.32;;;5.38;;
21721;SDS011;11023;48.274;7.794;2022-11-20T04:00:30;9.57;;;5.35;;
21721;SDS011;11023;48.274;7.794;2022-11-20T04:02:59;9.13;;;5.57;;
21721;SDS011;11023;48.274;7.794;2022-11-20T04:05:26;8.18;;;5.85;;
21721;SDS011;11023;48.274;7.794;2022-11-20T04:07:52;5.60;;;4.93;;
21721;SDS011;11023;48.274;7.794;2022-11-20T04:10:18;7.47;;;5.43;;
21721;SDS011;11023;48.274;7.794;2022-11-20T04:12:44;8.68;;;5.53;;
21721;SDS011;11023;48.274;7.794;2022-11-20T04:15:10;8.40;;;5.70;;
21721;SDS011;11023;48.274;7.794;2022-11-20T04:17:36;8.20;;;5.60;;
21721;SDS011;11023;48.274;7.794;2022-11-20T04:20:02;7.85;;;5.30;;
21721;SDS011;11023;48.274;7.794;2022-11-20T04:22:28;10.13;;;5.45;;
21721;SDS011;11023;48.274;7.794;2022-11-20T04:24:55;8.02;;;6.03;;
21721;SDS011;11023;48.274;7.794;2022-11-20T04:27:23;9.70;;;6.35;;
21721;SDS011;11023;48.274;7.794;2022-11-20T04:29:54;8.63;;;6.50;;
21721;SDS011;11023;48.274;7.794;2022-11-20T04:32:21;9.48;;;5.70;;
21721;SDS011;11023;48.274;7.794;2022-11-20T04:34:50;9.68;;;6.00;;
21721;SDS011;11023;48.274;7.794;2022-11-20T04:37:51;7.55;;;6.10;;
21721;SDS011;11023;48.274;7.794;2022-11-20T04:40:17;7.53;;;5.43;;
21721;SDS011;11023;48.274;7.794;2022-11-20T04:42:46;9.25;;;6.45;;
21721;SDS011;11023;48.274;7.794;2022-11-20T04:45:16;10.40;;;6.38;;
21721;SDS011;11023;48.274;7.794;2022-11-20T04:47:56;9.13;;;5.95;;
21721;SDS011;11023;48.274;7.794;2022-11-20T04:50:29;12.27;;;6.75;;
21721;SDS011;11023;48.274;7.794;2022-11-20T04:53:27;6.78;;;5.28;;
21721;SDS011;11023;48.274;7.794;2022-11-20T04:56:06;6.07;;;5.28;;
21721;SDS011;11023;48.274;7.794;2022-11-20T04:58:46;7.47;;;5.32;;
21721;SDS011;11023;48.274;7.794;2022-11-20T05:01:17;8.07;;;5.82;;
21721;SDS011;11023;48.274;7.794;2022-11-20T05:03:50;9.07;;;5.80;;
21721;SDS011;11023;48.274;7.794;2022-11-20T05:06:25;7.20;;;5.25;;
21721;SDS011;11023;48.274;7.794;2022-11-20T05:09:02;7.85;;;5.70;;
21721;SDS011;11023;48.274;7.794;2022-11-20T05:11:36;10.57;;;5.63;;
21721;SDS011;11023;48.274;7.794;2022-11-20T05:14:32;7.68;;;5.25;;
21721;SDS011;11023;48.274;7.794;2022-11-20T05:17:09;7.00;;;5.45;;
21721;SDS011;11023;48.274;7.794;2022-11-20T05:19:44;7.20;;;5.40;;
21721;SDS011;11023;48.274;7.794;2022-11-20T05:22:11;6.78;;;5.30;;
21721;SDS011;11023;48.274;7.794;2022-11-20T05:25:00;7.13;;;4.72;;
21721;SDS011;11023;48.274;7.794;2022-11-20T05:27:27;6.32;;;4.72;;
21721;SDS011;11023;48.274;7.794;2022-11-20T05:29:54;7.28;;;4.97;;
21721;SDS011;11023;48.274;7.794;2022-11-20T05:32:24;10.43;;;5.10;;
21721;SDS011;11023;48.274;7.794;2022-11-20T05:34:52;7.78;;;4.72;;
21721;SDS011;11023;48.274;7.794;2022-11-20T05:37:18;6.53;;;4.43;;
21721;SDS011;11023;48.274;7.794;2022-11-20T05:39:44;7.15;;;4.55;;
21721;SDS011;11023;48.274;7.794;2022-11-20T05:42:14;5.63;;;4.20;;
21721;SDS011;11023;48.274;7.794;2022-11-20T05:45:00;6.88;;;4.25;;
21721;SDS011;11023;48.274;7.794;2022-11-20T05:47:32;5.50;;;4.10;;
21721;SDS011;11023;48.274;7.794;2022-11-20T05:50:01;6.25;;;4.20;;
21721;SDS011;11023;48.274;7.794;2022-11-20T05:52:30;5.75;;;3.67;;
21721;SDS011;11023;48.274;7.794;2022-11-20T05:55:18;6.00;;;3.85;;
21721;SDS011;11023;48.274;7.794;2022-11-20T05:57:46;5.15;;;3.63;;
21721;SDS011;11023;48.274;7.794;2022-11-20T06:00:13;7.63;;;3.60;;
21721;SDS011;11023;48.274;7.794;2022-11-20T06:02:39;5.78;;;3.58;;
21721;SDS011;11023;48.274;7.794;2022-11-20T06:05:08;4.00;;;3.22;;
21721;SDS011;11023;48.274;7.794;2022-11-20T06:07:41;4.00;;;3.10;;
21721;SDS011;11023;48.274;7.794;2022-11-20T06:10:34;4.45;;;3.00;;
21721;SDS011;11023;48.274;7.794;2022-11-20T06:15:36;5.07;;;3.00;;
21721;SDS011;11023;48.274;7.794;2022-11-20T06:18:06;6.05;;;3.15;;
21721;SDS011;11023;48.274;7.794;2022-11-20T06:20:33;4.70;;;2.67;;
21721;SDS011;11023;48.274;7.794;2022-11-20T06:22:59;6.75;;;3.55;;
21721;SDS011;11023;48.274;7.794;2022-11-20T06:25:26;3.45;;;2.97;;
21721;SDS011;11023;48.274;7.794;2022-11-20T06:27:53;5.15;;;2.83;;
21721;SDS011;11023;48.274;7.794;2022-11-20T06:30:22;4.57;;;2.65;;
21721;SDS011;11023;48.274;7.794;2022-11-20T06:32:48;3.25;;;2.70;;
21721;SDS011;11023;48.274;7.794;2022-11-20T06:35:15;4.05;;;2.40;;
21721;SDS011;11023;48.274;7.794;2022-11-20T06:37:42;3.22;;;2.58;;
21721;SDS011;11023;48.274;7.794;2022-11-20T06:40:09;4.10;;;3.05;;
21721;SDS011;11023;48.274;7.794;2022-11-20T06:42:39;3.10;;;2.80;;
21721;SDS011;11023;48.274;7.794;2022-11-20T06:45:14;3.58;;;2.67;;
21721;SDS011;11023;48.274;7.794;2022-11-20T06:47:41;2.60;;;2.30;;
21721;SDS011;11023;48.274;7.794;2022-11-20T06:50:07;3.85;;;2.42;;
21721;SDS011;11023;48.274;7.794;2022-11-20T06:52:33;3.63;;;2.30;;
21721;SDS011;11023;48.274;7.794;2022-11-20T06:54:59;4.85;;;2.97;;
21721;SDS011;11023;48.274;7.794;2022-11-20T06:57:25;2.97;;;2.50;;
21721;SDS011;11023;48.274;7.794;2022-11-20T06:59:52;5.28;;;2.72;;
21721;SDS011;11023;48.274;7.794;2022-11-20T07:02:21;3.72;;;2.78;;
21721;SDS011;11023;48.274;7.794;2022-11-20T07:04:49;3.80;;;3.33;;
21721;SDS011;11023;48.274;7.794;2022-11-20T07:07:15;3.78;;;2.70;;
21721;SDS011;11023;48.274;7.794;2022-11-20T07:09:42;3.15;;;2.65;;
21721;SDS011;11023;48.274;7.794;2022-11-20T07:12:11;4.55;;;3.30;;
21721;SDS011;11023;48.274;7.794;2022-11-20T07:14:39;4.60;;;3.42;;
21721;SDS011;11023;48.274;7.794;2022-11-20T07:17:17;3.60;;;3.08;;
21721;SDS011;11023;48.274;7.794;2022-11-20T07:19:47;3.80;;;3.15;;
21721;SDS011;11023;48.274;7.794;2022-11-20T07:22:15;3.63;;;3.10;;
21721;SDS011;11023;48.274;7.794;2022-11-20T07:24:44;3.90;;;2.90;;
21721;SDS011;11023;48.274;7.794;2022-11-20T07:27:14;4.28;;;2.90;;
21721;SDS011;11023;48.274;7.794;2022-11-20T07:29:41;3.60;;;2.65;;
21721;SDS011;11023;48.274;7.794;2022-11-20T07:32:12;8.23;;;3.30;;
21721;SDS011;11023;48.274;7.794;2022-11-20T07:34:46;4.65;;;3.30;;
21721;SDS011;11023;48.274;7.794;2022-11-20T07:37:15;4.43;;;2.95;;
21721;SDS011;11023;48.274;7.794;2022-11-20T07:39:41;4.70;;;3.45;;
21721;SDS011;11023;48.274;7.794;2022-11-20T07:42:07;4.15;;;3.35;;
21721;SDS011;11023;48.274;7.794;2022-11-20T07:44:34;3.28;;;2.95;;
21721;SDS011;11023;48.274;7.794;2022-11-20T07:47:00;5.60;;;3.20;;
21721;SDS011;11023;48.274;7.794;2022-11-20T07:49:26;5.13;;;3.60;;
21721;SDS011;11023;48.274;7.794;2022-11-20T07:51:52;3.05;;;2.60;;
21721;SDS011;11023;48.274;7.794;2022-11-20T07:54:19;4.72;;;3.15;;
21721;SDS011;11023;48.274;7.794;2022-11-20T07:56:46;3.55;;;3.25;;
21721;SDS011;11023;48.274;7.794;2022-11-20T07:59:12;4.82;;;3.00;;
21721;SDS011;11023;48.274;7.794;2022-11-20T08:01:39;3.88;;;2.78;;
21721;SDS011;11023;48.274;7.794;2022-11-20T08:04:05;5.35;;;3.10;;
21721;SDS011;11023;48.274;7.794;2022-11-20T08:06:31;4.05;;;3.00;;
21721;SDS011;11023;48.274;7.794;2022-11-20T08:08:58;3.88;;;3.08;;
21721;SDS011;11023;48.274;7.794;2022-11-20T08:11:23;5.53;;;3.35;;
21721;SDS011;11023;48.274;7.794;2022-11-20T08:14:08;4.53;;;3.40;;
21721;SDS011;11023;48.274;7.794;2022-11-20T08:16:36;4.50;;;3.40;;
21721;SDS011;11023;48.274;7.794;2022-11-20T08:19:03;4.80;;;3.40;;
21721;SDS011;11023;48.274;7.794;2022-11-20T08:21:29;4.88;;;3.38;;
21721;SDS011;11023;48.274;7.794;2022-11-20T08:23:56;4.20;;;3.15;;
21721;SDS011;11023;48.274;7.794;2022-11-20T08:26:22;5.28;;;3.15;;
21721;SDS011;11023;48.274;7.794;2022-11-20T08:28:49;5.68;;;3.10;;
21721;SDS011;11023;48.274;7.794;2022-11-20T08:31:14;4.10;;;3.20;;
21721;SDS011;11023;48.274;7.794;2022-11-20T08:33:40;4.82;;;3.05;;
21721;SDS011;11023;48.274;7.794;2022-11-20T08:36:06;3.47;;;2.88;;
21721;SDS011;11023;48.274;7.794;2022-11-20T08:38:32;6.25;;;3.20;;
21721;SDS011;11023;48.274;7.794;2022-11-20T08:40:59;5.07;;;3.65;;
21721;SDS011;11023;48.274;7.794;2022-11-20T08:43:44;5.80;;;3.95;;
21721;SDS011;11023;48.274;7.794;2022-11-20T08:46:10;6.18;;;3.67;;
21721;SDS011;11023;48.274;7.794;2022-11-20T08:48:36;5.93;;;3.28;;
21721;SDS011;11023;48.274;7.794;2022-11-20T08:51:02;4.78;;;3.00;;
21721;SDS011;11023;48.274;7.794;2022-11-20T08:53:28;4.38;;;3.40;;
21721;SDS011;11023;48.274;7.794;2022-11-20T08:55:54;5.22;;;3.17;;
21721;SDS011;11023;48.274;7.794;2022-11-20T08:58:21;3.83;;;2.95;;
21721;SDS011;11023;48.274;7.794;2022-11-20T09:00:47;5.97;;;3.40;;
21721;SDS011;11023;48.274;7.794;2022-11-20T09:03:12;3.70;;;3.30;;
21721;SDS011;11023;48.274;7.794;2022-11-20T09:05:38;6.80;;;3.30;;
21721;SDS011;11023;48.274;7.794;2022-11-20T09:08:04;5.05;;;3.17;;
21721;SDS011;11023;48.274;7.794;2022-11-20T09:10:30;6.05;;;3.25;;
21721;SDS011;11023;48.274;7.794;2022-11-20T09:12:57;4.53;;;2.80;;
21721;SDS011;11023;48.274;7.794;2022-11-20T09:15:24;4.30;;;3.15;;
21721;SDS011;11023;48.274;7.794;2022-11-20T09:17:54;5.05;;;3.00;;
21721;SDS011;11023;48.274;7.794;2022-11-20T09:20:21;4.72;;;2.75;;
21721;SDS011;11023;48.274;7.794;2022-11-20T09:22:47;7.55;;;3.10;;
21721;SDS011;11023;48.274;7.794;2022-11-20T09:25:13;4.05;;;3.00;;
21721;SDS011;11023;48.274;7.794;2022-11-20T09:27:39;6.30;;;3.15;;
21721;SDS011;11023;48.274;7.794;2022-11-20T09:30:12;4.90;;;3.05;;
21721;SDS011;11023;48.274;7.794;2022-11-20T09:35:08;7.63;;;4.18;;
21721;SDS011;11023;48.274;7.794;2022-11-20T09:37:35;5.32;;;3.38;;
21721;SDS011;11023;48.274;7.794;2022-11-20T09:40:01;4.50;;;2.92;;
21721;SDS011;11023;48.274;7.794;2022-11-20T09:42:41;3.55;;;3.10;;
21721;SDS011;11023;48.274;7.794;2022-11-20T09:51:04;5.88;;;3.13;;
21721;SDS011;11023;48.274;7.794;2022-11-20T09:56:20;5.57;;;3.15;;
21721;SDS011;11023;48.274;7.794;2022-11-20T09:58:53;4.13;;;2.65;;
21721;SDS011;11023;48.274;7.794;2022-11-20T10:01:26;3.67;;;2.70;;
21721;SDS011;11023;48.274;7.794;2022-11-20T10:03:58;4.57;;;2.30;;
21721;SDS011;11023;48.274;7.794;2022-11-20T10:06:29;2.78;;;1.98;;
21721;SDS011;11023;48.274;7.794;2022-11-20T10:09:12;2.88;;;1.80;;
21721;SDS011;11023;48.274;7.794;2022-11-20T10:17:22;3.03;;;1.60;;
21721;SDS011;11023;48.274;7.794;2022-11-20T10:25:08;2.50;;;1.83;;
21721;SDS011;11023;48.274;7.794;2022-11-20T10:30:27;3.13;;;1.77;;
21721;SDS011;11023;48.274;7.794;2022-11-20T10:32:56;3.17;;;1.88;;
21721;SDS011;11023;48.274;7.794;2022-11-20T10:38:19;2.88;;;1.70;;
21721;SDS011;11023;48.274;7.794;2022-11-20T10:40:54;2.70;;;2.03;;
21721;SDS011;11023;48.274;7.794;2022-11-20T10:43:43;3.58;;;2.05;;
21721;SDS011;11023;48.274;7.794;2022-11-20T10:46:12;2.15;;;1.67;;
21721;SDS011;11023;48.274;7.794;2022-11-20T10:48:42;2.17;;;1.55;;
21721;SDS011;11023;48.274;7.794;2022-11-20T10:56:50;2.78;;;1.75;;
21721;SDS011;11023;48.274;7.794;2022-11-20T11:01:51;3.25;;;1.67;;
21721;SDS011;11023;48.274;7.794;2022-11-20T11:04:28;2.83;;;2.00;;
21721;SDS011;11023;48.274;7.794;2022-11-20T11:07:14;6.05;;;1.98;;
21721;SDS011;11023;48.274;7.794;2022-11-20T11:09:46;1.77;;;1.67;;
21721;SDS011;11023;48.274;7.794;2022-11-20T11:12:14;3.83;;;1.75;;
21721;SDS011;11023;48.274;7.794;2022-11-20T11:14:44;2.53;;;1.65;;
21721;SDS011;11023;48.274;7.794;2022-11-20T11:17:45;3.42;;;1.70;;
21721;SDS011;11023;48.274;7.794;2022-11-20T11:22:49;3.35;;;1.50;;
21721;SDS011;11023;48.274;7.794;2022-11-20T11:25:20;2.70;;;1.35;;
21721;SDS011;11023;48.274;7.794;2022-11-20T11:27:55;2.35;;;1.30;;
21721;SDS011;11023;48.274;7.794;2022-11-20T11:30:25;2.08;;;1.60;;
21721;SDS011;11023;48.274;7.794;2022-11-20T11:33:02;3.75;;;1.45;;
21721;SDS011;11023;48.274;7.794;2022-11-20T11:35:30;4.25;;;1.20;;
21721;SDS011;11023;48.274;7.794;2022-11-20T11:38:10;2.95;;;1.45;;
21721;SDS011;11023;48.274;7.794;2022-11-20T11:43:06;3.58;;;1.20;;
21721;SDS011;11023;48.274;7.794;2022-11-20T11:46:01;3.80;;;1.30;;
21721;SDS011;11023;48.274;7.794;2022-11-20T11:48:29;3.20;;;1.52;;
21721;SDS011;11023;48.274;7.794;2022-11-20T11:50:55;2.60;;;1.55;;
21721;SDS011;11023;48.274;7.794;2022-11-20T11:53:21;3.28;;;1.27;;
21721;SDS011;11023;48.274;7.794;2022-11-20T11:58:34;1.38;;;0.80;;
21721;SDS011;11023;48.274;7.794;2022-11-20T12:04:55;1.60;;;0.80;;
21721;SDS011;11023;48.274;7.794;2022-11-20T12:07:20;2.20;;;1.42;;
21721;SDS011;11023;48.274;7.794;2022-11-20T12:10:00;2.65;;;1.80;;
21721;SDS011;11023;48.274;7.794;2022-11-20T12:12:30;2.28;;;2.00;;
21721;SDS011;11023;48.274;7.794;2022-11-20T12:15:01;2.78;;;1.80;;
21721;SDS011;11023;48.274;7.794;2022-11-20T12:17:29;5.18;;;1.77;;
21721;SDS011;11023;48.274;7.794;2022-11-20T12:19:54;2.47;;;1.23;;
21721;SDS011;11023;48.274;7.794;2022-11-20T12:27:53;1.30;;;0.80;;
21721;SDS011;11023;48.274;7.794;2022-11-20T12:30:37;2.25;;;1.23;;
21721;SDS011;11023;48.274;7.794;2022-11-20T12:39:25;2.15;;;1.27;;
21721;SDS011;11023;48.274;7.794;2022-11-20T12:45:14;2.90;;;1.00;;
21721;SDS011;11023;48.274;7.794;2022-11-20T12:50:43;2.28;;;1.60;;
21721;SDS011;11023;48.274;7.794;2022-11-20T12:59:00;1.13;;;0.80;;
21721;SDS011;11023;48.274;7.794;2022-11-20T13:06:59;3.10;;;0.70;;
21721;SDS011;11023;48.274;7.794;2022-11-20T13:09:33;2.92;;;0.70;;
21721;SDS011;11023;48.274;7.794;2022-11-20T13:12:06;1.42;;;0.80;;
21721;SDS011;11023;48.274;7.794;2022-11-20T13:14:57;3.33;;;0.90;;
21721;SDS011;11023;48.274;7.794;2022-11-20T13:17:36;1.67;;;1.10;;
21721;SDS011;11023;48.274;7.794;2022-11-20T13:20:19;3.53;;;2.67;;
21721;SDS011;11023;48.274;7.794;2022-11-20T13:22:46;14.63;;;7.75;;
21721;SDS011;11023;48.274;7.794;2022-11-20T13:30:36;6.50;;;4.43;;
21721;SDS011;11023;48.274;7.794;2022-11-20T13:33:25;2.38;;;1.02;;
21721;SDS011;11023;48.274;7.794;2022-11-20T13:36:22;21.90;;;13.77;;
21721;SDS011;11023;48.274;7.794;2022-11-20T13:38:51;3.75;;;2.22;;
21721;SDS011;11023;48.274;7.794;2022-11-20T13:41:35;9.27;;;6.25;;
21721;SDS011;11023;48.274;7.794;2022-11-20T13:44:10;3.22;;;1.20;;
21721;SDS011;11023;48.274;7.794;2022-11-20T13:46:47;4.03;;;0.88;;
21721;SDS011;11023;48.274;7.794;2022-11-20T14:00:16;3.50;;;2.08;;
21721;SDS011;11023;48.274;7.794;2022-11-20T14:02:44;9.95;;;5.15;;
21721;SDS011;11023;48.274;7.794;2022-11-20T14:05:36;7.63;;;3.95;;
21721;SDS011;11023;48.274;7.794;2022-11-20T14:08:05;2.03;;;0.93;;
21721;SDS011;11023;48.274;7.794;2022-11-20T14:10:38;7.50;;;2.70;;
21721;SDS011;11023;48.274;7.794;2022-11-20T14:13:12;13.73;;;6.95;;
21721;SDS011;11023;48.274;7.794;2022-11-20T14:15:43;4.95;;;2.85;;
21721;SDS011;11023;48.274;7.794;2022-11-20T14:18:19;10.65;;;6.40;;
21721;SDS011;11023;48.274;7.794;2022-11-20T14:20:49;6.10;;;3.38;;
21721;SDS011;11023;48.274;7.794;2022-11-20T14:23:23;3.90;;;2.10;;
21721;SDS011;11023;48.274;7.794;2022-11-20T14:25:50;3.15;;;1.80;;
21721;SDS011;11023;48.274;7.794;2022-11-20T14:28:28;3.90;;;2.10;;
21721;SDS011;11023;48.274;7.794;2022-11-20T14:30:55;6.47;;;4.75;;
21721;SDS011;11023;48.274;7.794;2022-11-20T14:33:22;3.50;;;3.10;;
21721;SDS011;11023;48.274;7.794;2022-11-20T14:35:51;4.40;;;2.20;;
21721;SDS011;11023;48.274;7.794;2022-11-20T14:38:21;3.65;;;1.63;;
21721;SDS011;11023;48.274;7.794;2022-11-20T14:40:52;4.50;;;1.60;;
21721;SDS011;11023;48.274;7.794;2022-11-20T14:48:38;3.33;;;1.58;;
21721;SDS011;11023;48.274;7.794;2022-11-20T14:51:08;2.33;;;1.20;;
21721;SDS011;11023;48.274;7.794;2022-11-20T14:53:48;5.10;;;1.60;;
21721;SDS011;11023;48.274;7.794;2022-11-20T14:56:14;1.38;;;1.10;;
21721;SDS011;11023;48.274;7.794;2022-11-20T14:58:58;2.67;;;1.45;;
21721;SDS011;11023;48.274;7.794;2022-11-20T15:01:28;3.72;;;1.52;;
21721;SDS011;11023;48.274;7.794;2022-11-20T15:04:05;4.05;;;1.60;;
21721;SDS011;11023;48.274;7.794;2022-11-20T15:06:34;2.38;;;1.23;;
21721;SDS011;11023;48.274;7.794;2022-11-20T15:09:02;2.78;;;1.30;;
21721;SDS011;11023;48.274;7.794;2022-11-20T15:11:30;2.72;;;1.30;;
21721;SDS011;11023;48.274;7.794;2022-11-20T15:14:01;3.85;;;1.58;;
21721;SDS011;11023;48.274;7.794;2022-11-20T15:16:29;5.00;;;1.67;;
21721;SDS011;11023;48.274;7.794;2022-11-20T15:18:55;2.72;;;1.42;;
21721;SDS011;11023;48.274;7.794;2022-11-20T15:21:22;3.97;;;1.40;;
21721;SDS011;11023;48.274;7.794;2022-11-20T15:23:48;3.08;;;1.45;;
21721;SDS011;11023;48.274;7.794;2022-11-20T15:26:15;3.20;;;1.30;;
21721;SDS011;11023;48.274;7.794;2022-11-20T15:28:47;2.90;;;1.35;;
21721;SDS011;11023;48.274;7.794;2022-11-20T15:31:16;3.65;;;1.33;;
21721;SDS011;11023;48.274;7.794;2022-11-20T15:33:43;3.20;;;1.20;;
21721;SDS011;11023;48.274;7.794;2022-11-20T15:36:09;3.28;;;1.20;;
21721;SDS011;11023;48.274;7.794;2022-11-20T15:38:35;3.05;;;1.35;;
21721;SDS011;11023;48.274;7.794;2022-11-20T15:41:01;2.58;;;1.02;;
21721;SDS011;11023;48.274;7.794;2022-11-20T15:43:27;2.63;;;1.20;;
21721;SDS011;11023;48.274;7.794;2022-11-20T15:45:53;3.17;;;1.33;;
21721;SDS011;11023;48.274;7.794;2022-11-20T15:48:45;3.70;;;1.40;;
21721;SDS011;11023;48.274;7.794;2022-11-20T15:53:37;3.05;;;1.48;;
21721;SDS011;11023;48.274;7.794;2022-11-20T15:56:04;3.70;;;1.35;;
21721;SDS011;11023;48.274;7.794;2022-11-20T15:58:30;3.20;;;1.55;;
21721;SDS011;11023;48.274;7.794;2022-11-20T16:00:55;4.07;;;1.40;;
21721;SDS011;11023;48.274;7.794;2022-11-20T16:03:21;6.32;;;1.50;;
21721;SDS011;11023;48.274;7.794;2022-11-20T16:05:47;4.05;;;1.67;;
21721;SDS011;11023;48.274;7.794;2022-11-20T16:08:13;5.97;;;1.83;;
21721;SDS011;11023;48.274;7.794;2022-11-20T16:10:39;5.60;;;1.77;;
21721;SDS011;11023;48.274;7.794;2022-11-20T16:13:10;5.18;;;2.10;;
21721;SDS011;11023;48.274;7.794;2022-11-20T16:15:57;4.18;;;1.88;;
21721;SDS011;11023;48.274;7.794;2022-11-20T16:18:24;4.60;;;2.33;;
21721;SDS011;11023;48.274;7.794;2022-11-20T16:20:51;5.60;;;2.00;;
21721;SDS011;11023;48.274;7.794;2022-11-20T16:23:18;3.97;;;2.30;;
21721;SDS011;11023;48.274;7.794;2022-11-20T16:25:44;4.70;;;2.20;;
21721;SDS011;11023;48.274;7.794;2022-11-20T16:28:10;6.30;;;2.80;;
21721;SDS011;11023;48.274;7.794;2022-11-20T16:30:36;7.05;;;3.97;;
21721;SDS011;11023;48.274;7.794;2022-11-20T16:33:02;7.25;;;4.22;;
21721;SDS011;11023;48.274;7.794;2022-11-20T16:35:30;29.67;;;19.75;;
21721;SDS011;11023;48.274;7.794;2022-11-20T16:37:57;14.45;;;9.38;;
21721;SDS011;11023;48.274;7.794;2022-11-20T16:40:26;21.83;;;13.73;;
21721;SDS011;11023;48.274;7.794;2022-11-20T16:42:52;21.50;;;17.02;;
21721;SDS011;11023;48.274;7.794;2022-11-20T16:45:18;9.55;;;7.43;;
21721;SDS011;11023;48.274;7.794;2022-11-20T16:47:44;5.65;;;2.80;;
21721;SDS011;11023;48.274;7.794;2022-11-20T16:50:10;4.53;;;2.30;;
21721;SDS011;11023;48.274;7.794;2022-11-20T16:52:36;3.38;;;1.55;;
21721;SDS011;11023;48.274;7.794;2022-11-20T16:55:02;3.60;;;1.77;;